Time;durP1;ratioP1;P1;durP2;ratioP2;P2;SDS_P1;SDS_P2;PMS_P1;PMS_P2;Temp;Humidity;BMP_temperature;BMP_pressure;BME280_temperature;BME280_humidity;BME280_pressure;Samples;Min_cycle;Max_cycle;Signal;HPM_P1;HPM_P2
2022/04/07 00:01:22;;;;;;;4.32;3.72;;;9.70;99.90;;;;;;5006983;28;20020;-75
2022/04/07 00:03:49;;;;;;;3.70;2.80;;;9.70;99.90;;;;;;5001935;28;20384;-76
2022/04/07 00:06:15;;;;;;;4.28;2.03;;;9.70;99.90;;;;;;5020193;28;20490;-75
2022/04/07 00:08:42;;;;;;;7.30;3.75;;;9.60;99.90;;;;;;5056881;28;20013;-75
2022/04/07 00:11:09;;;;;;;4.45;3.92;;;9.60;99.90;;;;;;5020083;28;20032;-75
2022/04/07 00:13:35;;;;;;;4.90;3.72;;;9.60;99.90;;;;;;5034294;28;20761;-75
2022/04/07 00:16:02;;;;;;;6.03;3.88;;;9.50;99.90;;;;;;5021104;28;20033;-75
2022/04/07 00:18:28;;;;;;;4.13;3.30;;;9.50;99.90;;;;;;5039688;28;20029;-75
2022/04/07 00:20:55;;;;;;;5.47;4.15;;;9.50;99.90;;;;;;4989745;28;20024;-75
2022/04/07 00:23:22;;;;;;;8.45;3.63;;;9.50;99.90;;;;;;5002665;28;20381;-75
2022/04/07 00:25:49;;;;;;;4.05;3.65;;;9.50;99.90;;;;;;5038833;28;20032;-80
2022/04/07 00:28:16;;;;;;;6.40;3.80;;;9.50;99.90;;;;;;5011274;28;22430;-82
2022/04/07 00:30:43;;;;;;;4.53;3.15;;;9.50;99.90;;;;;;5024599;28;20036;-80
2022/04/07 00:33:10;;;;;;;5.55;3.85;;;9.50;99.90;;;;;;5020894;28;20472;-80
2022/04/07 00:35:37;;;;;;;6.97;3.63;;;9.50;99.90;;;;;;5059498;28;20460;-75
2022/04/07 00:38:04;;;;;;;6.30;4.55;;;9.50;99.90;;;;;;5007890;28;20476;-75
2022/04/07 00:40:33;;;;;;;4.95;3.05;;;9.40;99.90;;;;;;5026652;28;20352;-75
2022/04/07 00:42:59;;;;;;;4.63;3.28;;;9.40;99.90;;;;;;5022254;28;20039;-75
2022/04/07 00:45:26;;;;;;;7.15;4.38;;;9.40;99.90;;;;;;5024293;28;20049;-75
2022/04/07 00:47:52;;;;;;;4.65;4.18;;;9.40;99.90;;;;;;5009037;28;20032;-76
2022/04/07 00:50:20;;;;;;;5.38;3.53;;;9.40;99.90;;;;;;5010120;28;20021;-76
2022/04/07 00:52:56;;;;;;;5.53;3.65;;;9.40;99.90;;;;;;5020882;28;20051;-76
2022/04/07 00:55:25;;;;;;;7.97;3.33;;;9.40;99.90;;;;;;5041088;28;21647;-76
2022/04/07 00:57:52;;;;;;;8.57;3.90;;;9.40;99.90;;;;;;5022583;28;20028;-76
2022/04/07 01:00:18;;;;;;;7.93;3.22;;;9.40;99.90;;;;;;5041035;28;20028;-76
2022/04/07 01:02:48;;;;;;;7.30;3.13;;;9.40;99.90;;;;;;5020607;28;20391;-76
2022/04/07 01:05:16;;;;;;;6.78;3.10;;;9.40;99.90;;;;;;5040027;28;20040;-76
2022/04/07 01:07:44;;;;;;;8.20;3.08;;;9.40;99.90;;;;;;5056993;28;20040;-75
2022/04/07 01:10:10;;;;;;;7.90;2.67;;;9.40;99.90;;;;;;5058115;28;20029;-76
2022/04/07 01:12:38;;;;;;;5.22;2.10;;;9.50;99.90;;;;;;5054856;28;20601;-76
2022/04/07 01:15:06;;;;;;;5.95;1.52;;;9.40;99.90;;;;;;5023340;28;20020;-75
2022/04/07 01:17:38;;;;;;;7.28;1.95;;;9.40;99.90;;;;;;5008064;28;20029;-76
2022/04/07 01:20:07;;;;;;;6.93;1.43;;;9.40;99.90;;;;;;5010329;28;20024;-76
2022/04/07 01:22:40;;;;;;;6.93;1.35;;;9.40;99.90;;;;;;5021378;28;20047;-76
2022/04/07 01:25:07;;;;;;;7.43;1.10;;;9.40;99.90;;;;;;5057627;28;20036;-76
2022/04/07 01:27:34;;;;;;;9.23;1.20;;;9.40;99.90;;;;;;5024665;28;20028;-76
2022/04/07 01:30:05;;;;;;;6.43;1.20;;;9.40;99.90;;;;;;5025672;28;20032;-76
2022/04/07 01:32:38;;;;;;;9.68;1.58;;;9.30;99.90;;;;;;5018512;28;20036;-76
2022/04/07 01:35:05;;;;;;;10.13;1.77;;;9.30;99.90;;;;;;5020881;28;20029;-76
2022/04/07 01:37:32;;;;;;;6.95;1.60;;;9.30;99.90;;;;;;5006622;28;20037;-76
2022/04/07 01:40:01;;;;;;;4.22;1.27;;;9.20;99.90;;;;;;5041010;28;20024;-76
2022/04/07 01:42:28;;;;;;;8.80;1.80;;;9.20;99.90;;;;;;5002922;28;20093;-76
2022/04/07 01:44:57;;;;;;;10.02;2.22;;;9.20;99.90;;;;;;5022554;28;20150;-75
2022/04/07 01:47:23;;;;;;;9.27;2.22;;;9.10;99.90;;;;;;5038803;28;20028;-76
2022/04/07 01:49:58;;;;;;;5.88;1.40;;;9.10;99.90;;;;;;5039583;28;20340;-75
2022/04/07 01:52:25;;;;;;;6.90;1.42;;;9.10;99.90;;;;;;5035436;28;20025;-76
2022/04/07 01:54:53;;;;;;;6.57;1.27;;;9.10;99.90;;;;;;5007181;28;20367;-75
2022/04/07 01:57:23;;;;;;;9.48;1.70;;;9.10;99.90;;;;;;5056822;28;20025;-75
2022/04/07 01:59:53;;;;;;;5.32;1.42;;;9.00;99.90;;;;;;5002059;28;20035;-76
2022/04/07 02:02:23;;;;;;;6.65;1.65;;;9.00;99.90;;;;;;5034640;28;20411;-76
2022/04/07 02:04:58;;;;;;;6.20;1.60;;;9.00;99.90;;;;;;5021670;28;20032;-76
2022/04/07 02:07:29;;;;;;;7.55;2.28;;;9.00;99.90;;;;;;5010601;28;20036;-76
2022/04/07 02:09:56;;;;;;;11.20;2.22;;;9.00;99.90;;;;;;5027076;28;20031;-75
2022/04/07 02:12:22;;;;;;;6.65;2.20;;;9.00;99.90;;;;;;5003090;28;20045;-75
2022/04/07 02:14:49;;;;;;;6.45;1.75;;;9.00;99.90;;;;;;5019978;28;20030;-76
2022/04/07 02:17:20;;;;;;;10.27;2.53;;;9.00;99.90;;;;;;5006583;28;20028;-76
2022/04/07 02:19:55;;;;;;;11.30;3.03;;;9.00;99.90;;;;;;5025074;28;20020;-76
2022/04/07 02:22:23;;;;;;;7.72;2.50;;;8.90;99.90;;;;;;5026973;28;20040;-76
2022/04/07 02:24:52;;;;;;;5.55;1.90;;;8.90;99.90;;;;;;5039061;28;20045;-75
2022/04/07 02:27:19;;;;;;;8.18;2.35;;;8.90;99.90;;;;;;5038972;28;20024;-76
2022/04/07 02:29:45;;;;;;;17.83;3.30;;;9.00;99.90;;;;;;5025646;28;20407;-76
2022/04/07 02:32:12;;;;;;;7.45;1.90;;;9.00;99.90;;;;;;5003164;28;20104;-76
2022/04/07 02:34:41;;;;;;;8.60;2.60;;;9.00;99.90;;;;;;5037111;28;20064;-76
2022/04/07 02:37:15;;;;;;;6.63;2.13;;;9.00;99.90;;;;;;5019306;28;20020;-76
2022/04/07 02:39:42;;;;;;;8.25;2.47;;;9.00;99.90;;;;;;5056720;28;20032;-76
2022/04/07 02:42:09;;;;;;;10.15;2.47;;;8.90;99.90;;;;;;5054362;28;20801;-76
2022/04/07 02:44:35;;;;;;;9.82;2.60;;;8.90;99.90;;;;;;5022349;28;20036;-76
2022/04/07 02:47:02;;;;;;;9.18;2.58;;;9.00;99.90;;;;;;5020502;28;20375;-76
2022/04/07 02:49:28;;;;;;;9.88;2.60;;;8.90;99.90;;;;;;5054750;28;20055;-76
2022/04/07 02:52:01;;;;;;;10.43;3.35;;;8.90;99.90;;;;;;5005919;28;20028;-75
2022/04/07 02:54:30;;;;;;;9.48;2.85;;;8.90;99.90;;;;;;5054719;28;20017;-76
2022/04/07 02:56:57;;;;;;;9.32;2.58;;;9.00;99.90;;;;;;5037394;28;20029;-76
2022/04/07 02:59:23;;;;;;;8.77;2.55;;;8.90;99.90;;;;;;5055985;28;20582;-76
2022/04/07 03:01:51;;;;;;;7.35;2.97;;;8.90;99.90;;;;;;5035836;28;20031;-76
2022/04/07 03:04:18;;;;;;;7.03;2.55;;;8.90;99.90;;;;;;5006468;28;20032;-76
2022/04/07 03:06:45;;;;;;;10.52;2.63;;;8.90;99.90;;;;;;5034365;28;20031;-75
2022/04/07 03:09:11;;;;;;;21.48;3.72;;;8.90;99.90;;;;;;4993571;28;20036;-76
2022/04/07 03:11:39;;;;;;;15.95;3.40;;;8.90;99.90;;;;;;5005657;28;20495;-75
2022/04/07 03:14:13;;;;;;;14.05;3.67;;;8.80;99.90;;;;;;5056007;28;20032;-76
2022/04/07 03:16:39;;;;;;;14.88;3.13;;;8.80;99.90;;;;;;5055426;28;20029;-76
2022/04/07 03:19:06;;;;;;;11.98;3.75;;;8.80;99.90;;;;;;5008412;28;20024;-76
2022/04/07 03:21:32;;;;;;;14.02;3.60;;;8.80;99.90;;;;;;5021482;28;20037;-76
2022/04/07 03:23:59;;;;;;;17.83;3.92;;;8.80;99.90;;;;;;4995147;28;20045;-75
2022/04/07 03:26:25;;;;;;;15.02;3.70;;;8.90;99.90;;;;;;5034859;28;20032;-77
2022/04/07 03:28:52;;;;;;;14.35;3.50;;;8.80;99.90;;;;;;5022868;28;20494;-75
2022/04/07 03:31:18;;;;;;;8.70;3.35;;;8.90;99.90;;;;;;5006076;28;20021;-75
2022/04/07 03:33:44;;;;;;;16.73;3.35;;;8.90;99.90;;;;;;4998783;28;20032;-75
2022/04/07 03:36:11;;;;;;;16.52;3.10;;;8.90;99.90;;;;;;4973208;28;20033;-75
2022/04/07 03:38:38;;;;;;;11.65;3.10;;;8.90;99.90;;;;;;5008385;28;20041;-75
2022/04/07 03:41:06;;;;;;;16.27;2.97;;;8.90;99.90;;;;;;4982711;28;20028;-75
2022/04/07 03:43:34;;;;;;;14.05;3.05;;;8.90;99.90;;;;;;4993631;28;20376;-75
2022/04/07 03:46:01;;;;;;;15.02;2.72;;;8.90;99.90;;;;;;5054993;28;20020;-75
2022/04/07 03:48:27;;;;;;;12.95;1.85;;;8.90;99.90;;;;;;5021145;28;20028;-74
2022/04/07 03:50:54;;;;;;;15.25;2.83;;;9.00;99.90;;;;;;5037991;28;20028;-78
2022/04/07 03:53:21;;;;;;;16.70;3.22;;;9.00;99.90;;;;;;5015265;28;20032;-75
2022/04/07 03:55:47;;;;;;;14.45;2.65;;;9.00;99.90;;;;;;4998719;28;20020;-75
2022/04/07 03:58:14;;;;;;;17.17;3.20;;;9.00;99.90;;;;;;5037377;28;20025;-75
2022/04/07 04:00:40;;;;;;;9.25;1.92;;;9.00;99.90;;;;;;5043035;28;20056;-76
2022/04/07 04:03:06;;;;;;;16.40;3.40;;;8.90;99.90;;;;;;5025486;28;20024;-75
2022/04/07 04:05:33;;;;;;;14.20;2.92;;;8.90;99.90;;;;;;4993059;28;20033;-75
2022/04/07 04:07:59;;;;;;;16.13;3.63;;;8.90;99.90;;;;;;5009188;28;20037;-75
2022/04/07 04:10:26;;;;;;;11.48;2.28;;;8.90;99.90;;;;;;5024794;28;20033;-75
2022/04/07 04:12:52;;;;;;;13.82;3.15;;;8.90;99.90;;;;;;5008143;28;20040;-75
2022/04/07 04:15:19;;;;;;;15.10;2.50;;;8.90;99.90;;;;;;5023734;28;20462;-75
2022/04/07 04:17:45;;;;;;;11.63;1.98;;;8.90;99.90;;;;;;5024995;28;20036;-75
2022/04/07 04:20:12;;;;;;;11.18;2.42;;;8.90;99.90;;;;;;5009632;28;20039;-75
2022/04/07 04:22:39;;;;;;;13.02;2.65;;;8.80;99.90;;;;;;5020913;28;20510;-75
2022/04/07 04:25:08;;;;;;;11.07;1.70;;;8.90;99.90;;;;;;5019526;28;20044;-75
2022/04/07 04:27:34;;;;;;;14.25;2.30;;;8.80;99.90;;;;;;4993328;28;20047;-75
2022/04/07 04:30:01;;;;;;;17.77;2.50;;;8.80;99.90;;;;;;5009585;28;20384;-75
2022/04/07 04:32:27;;;;;;;13.25;2.15;;;8.90;99.90;;;;;;5040931;28;20036;-75
2022/04/07 04:34:53;;;;;;;11.15;2.08;;;8.90;99.90;;;;;;5008896;28;20691;-75
2022/04/07 04:37:25;;;;;;;11.60;1.92;;;8.90;99.90;;;;;;5008831;28;20033;-75
2022/04/07 04:39:53;;;;;;;13.90;2.25;;;8.90;99.90;;;;;;5025079;28;20024;-82
2022/04/07 04:42:20;;;;;;;17.90;1.98;;;8.80;99.90;;;;;;5037229;28;20511;-80
2022/04/07 04:44:47;;;;;;;7.70;1.70;;;8.80;99.90;;;;;;5025126;28;20468;-81
2022/04/07 04:47:16;;;;;;;14.90;2.20;;;8.80;99.90;;;;;;5026389;28;20036;-75
2022/04/07 04:49:42;;;;;;;10.32;1.77;;;8.80;99.90;;;;;;5026698;28;20037;-75
2022/04/07 04:52:10;;;;;;;12.60;1.70;;;8.80;99.90;;;;;;5021567;28;20046;-79
2022/04/07 04:54:37;;;;;;;12.27;1.70;;;8.90;99.90;;;;;;5008971;28;20032;-82
2022/04/07 04:57:03;;;;;;;11.32;1.77;;;8.90;99.90;;;;;;5024468;28;20030;-82
2022/04/07 04:59:30;;;;;;;12.80;1.92;;;8.90;99.90;;;;;;5042927;28;20028;-83
2022/04/07 05:01:57;;;;;;;9.02;1.48;;;8.90;99.90;;;;;;5023133;28;20032;-80
2022/04/07 05:04:23;;;;;;;9.15;1.80;;;8.90;99.90;;;;;;5025731;28;20035;-82
2022/04/07 05:06:50;;;;;;;11.32;2.05;;;8.90;99.90;;;;;;5040917;28;20035;-80
2022/04/07 05:09:16;;;;;;;8.32;2.22;;;8.90;99.90;;;;;;5024618;28;20020;-80
2022/04/07 05:11:42;;;;;;;7.70;1.30;;;8.90;99.90;;;;;;5022502;28;20041;-82
2022/04/07 05:14:09;;;;;;;13.68;1.40;;;9.00;99.90;;;;;;5003608;28;20037;-82
2022/04/07 05:16:35;;;;;;;7.88;1.25;;;9.00;99.90;;;;;;5014846;28;20028;-83
2022/04/07 05:19:05;;;;;;;6.38;1.40;;;9.00;99.90;;;;;;5033973;28;20604;-80
2022/04/07 05:21:34;;;;;;;10.90;1.65;;;9.00;99.90;;;;;;5025250;28;20471;-80
2022/04/07 05:24:01;;;;;;;7.68;1.27;;;9.00;99.90;;;;;;5054798;28;20353;-80
2022/04/07 05:26:28;;;;;;;7.63;1.13;;;9.00;99.90;;;;;;5007617;28;20048;-80
2022/04/07 05:28:54;;;;;;;7.05;1.08;;;9.00;99.90;;;;;;5040727;28;20365;-82
2022/04/07 05:31:21;;;;;;;4.00;0.73;;;9.00;99.90;;;;;;5041055;28;20029;-83
2022/04/07 05:33:49;;;;;;;5.40;1.55;;;9.00;99.90;;;;;;5037960;28;20051;-83
2022/04/07 05:36:16;;;;;;;7.40;1.25;;;9.00;99.90;;;;;;5008117;28;20416;-79
2022/04/07 05:38:43;;;;;;;7.28;1.27;;;9.00;99.90;;;;;;5041039;28;20492;-80
2022/04/07 05:41:10;;;;;;;5.28;1.30;;;9.00;99.90;;;;;;5040805;28;20359;-75
2022/04/07 05:43:39;;;;;;;4.78;0.90;;;9.00;99.90;;;;;;5018052;28;20032;-75
2022/04/07 05:46:09;;;;;;;6.35;0.95;;;9.10;99.90;;;;;;5009516;28;20047;-80
2022/04/07 05:48:35;;;;;;;4.65;0.88;;;9.10;99.90;;;;;;5049720;28;20041;-79
2022/04/07 05:51:07;;;;;;;5.05;1.25;;;9.10;99.90;;;;;;5008979;28;20032;-75
2022/04/07 05:53:34;;;;;;;6.55;1.05;;;9.10;99.90;;;;;;5043053;28;20043;-75
2022/04/07 05:56:00;;;;;;;14.68;6.88;;;9.10;99.90;;;;;;5020426;28;20028;-75
2022/04/07 05:58:30;;;;;;;9.98;4.35;;;9.10;99.90;;;;;;5007548;28;20487;-75
2022/04/07 06:00:56;;;;;;;4.53;1.25;;;9.10;99.90;;;;;;5005407;28;20039;-75
2022/04/07 06:03:23;;;;;;;3.80;0.98;;;9.10;99.90;;;;;;5004252;28;20037;-75
2022/04/07 06:05:52;;;;;;;7.10;0.93;;;9.20;99.90;;;;;;5003792;28;20045;-75
2022/04/07 06:08:20;;;;;;;6.88;1.80;;;9.10;99.90;;;;;;5024111;28;20040;-75
2022/04/07 06:10:46;;;;;;;2.67;1.00;;;9.10;99.90;;;;;;5005214;28;20028;-75
2022/04/07 06:13:14;;;;;;;4.72;0.70;;;9.10;99.90;;;;;;5018953;28;20029;-75
2022/04/07 06:15:42;;;;;;;2.83;0.70;;;9.10;99.90;;;;;;5021867;28;20036;-75
2022/04/07 06:18:08;;;;;;;3.40;0.98;;;9.10;99.90;;;;;;5022420;28;20037;-75
2022/04/07 06:20:38;;;;;;;2.60;0.70;;;9.10;99.90;;;;;;5021655;28;20063;-74
2022/04/07 06:23:04;;;;;;;6.28;1.08;;;9.10;99.90;;;;;;5053559;28;20013;-75
2022/04/07 06:25:30;;;;;;;4.53;0.75;;;9.10;99.90;;;;;;5024792;28;20466;-75
2022/04/07 06:27:59;;;;;;;3.55;1.20;;;9.10;99.90;;;;;;5022071;28;21224;-75
2022/04/07 06:30:25;;;;;;;2.67;0.80;;;9.10;99.90;;;;;;5041113;28;20040;-75
2022/04/07 06:32:52;;;;;;;3.22;0.98;;;9.10;99.90;;;;;;5020222;28;20565;-75
2022/04/07 06:35:18;;;;;;;3.55;0.63;;;9.00;99.90;;;;;;5017327;28;20025;-77
2022/04/07 06:37:48;;;;;;;6.53;1.65;;;9.10;99.90;;;;;;5006542;28;20426;-75
2022/04/07 06:40:20;;;;;;;4.85;1.88;;;9.10;99.90;;;;;;5037595;28;20028;-74
2022/04/07 06:42:51;;;;;;;4.85;1.20;;;9.10;99.90;;;;;;5034051;28;20029;-75
2022/04/07 06:45:18;;;;;;;4.20;1.70;;;9.10;99.90;;;;;;5021134;28;20036;-75
2022/04/07 06:47:45;;;;;;;5.30;1.77;;;9.10;99.90;;;;;;5022555;28;20047;-74
2022/04/07 06:50:14;;;;;;;5.07;1.27;;;9.00;99.90;;;;;;5036266;28;20024;-75
2022/04/07 06:52:41;;;;;;;9.23;1.80;;;9.10;99.90;;;;;;5036379;28;20031;-74
2022/04/07 06:55:08;;;;;;;6.07;1.67;;;9.10;99.90;;;;;;5055402;28;21695;-75
2022/04/07 06:57:47;;;;;;;6.63;2.25;;;9.10;99.90;;;;;;5021351;28;20024;-74
2022/04/07 07:00:14;;;;;;;6.22;2.00;;;9.10;99.90;;;;;;5038602;28;20021;-75
2022/04/07 07:02:40;;;;;;;9.40;1.90;;;9.00;99.90;;;;;;5017723;28;20035;-74
2022/04/07 07:05:07;;;;;;;1.08;0.40;;;9.00;99.90;;;;;;4998511;28;20040;-79
2022/04/07 07:07:34;;;;;;;5.43;0.70;;;8.80;99.90;;;;;;5023115;28;20051;-78
2022/04/07 07:10:00;;;;;;;5.20;0.20;;;8.00;99.90;;;;;;5022744;28;20033;-78
2022/04/07 07:12:26;;;;;;;6.65;0.20;;;7.40;99.90;;;;;;5035256;28;20043;-78
2022/04/07 07:14:53;;;;;;;3.53;0.25;;;6.90;99.90;;;;;;5021296;28;20029;-78
2022/04/07 07:17:19;;;;;;;0.82;0.10;;;6.60;99.90;;;;;;5019630;28;20032;-78
2022/04/07 07:19:46;;;;;;;2.40;0.30;;;6.30;99.90;;;;;;5015914;28;20387;-76
2022/04/07 07:22:12;;;;;;;2.03;0.40;;;6.20;99.90;;;;;;5036769;28;20448;-79
2022/04/07 07:24:38;;;;;;;2.28;0.30;;;6.00;99.90;;;;;;5020258;28;20037;-79
2022/04/07 07:27:05;;;;;;;3.63;0.40;;;6.00;99.90;;;;;;5021810;28;20033;-77
2022/04/07 07:29:31;;;;;;;0.95;0.20;;;5.90;99.90;;;;;;5021622;28;20071;-78
2022/04/07 07:31:57;;;;;;;2.10;0.70;;;5.90;99.90;;;;;;5038342;28;20758;-78
2022/04/07 07:34:25;;;;;;;3.13;0.63;;;5.90;99.90;;;;;;5041694;28;23422;-78
2022/04/07 07:36:51;;;;;;;1.73;0.38;;;5.90;99.90;;;;;;5009381;28;20040;-80
2022/04/07 07:39:18;;;;;;;3.00;0.40;;;5.90;99.90;;;;;;5027067;28;20024;-78
2022/04/07 07:41:45;;;;;;;3.30;0.40;;;6.00;99.90;;;;;;5040213;28;20028;-78
2022/04/07 07:44:11;;;;;;;3.08;0.50;;;6.00;99.90;;;;;;5043460;28;20032;-77
2022/04/07 07:46:37;;;;;;;3.97;0.50;;;6.00;99.90;;;;;;5040585;28;20813;-77
2022/04/07 07:49:06;;;;;;;4.50;0.45;;;6.00;99.90;;;;;;5061272;28;20013;-77
2022/04/07 07:51:32;;;;;;;3.90;0.40;;;6.10;99.90;;;;;;5060944;28;20059;-78
2022/04/07 07:53:59;;;;;;;2.22;0.50;;;6.10;99.90;;;;;;5040036;28;20032;-75
2022/04/07 07:56:25;;;;;;;3.78;0.43;;;6.00;99.90;;;;;;5055602;28;20051;-78
2022/04/07 07:58:51;;;;;;;2.58;0.45;;;6.00;99.90;;;;;;5028200;28;20036;-78
2022/04/07 08:01:18;;;;;;;4.13;0.57;;;6.00;99.90;;;;;;5044623;28;20039;-79
2022/04/07 08:03:44;;;;;;;4.18;0.63;;;6.00;99.90;;;;;;5040455;28;20468;-77
2022/04/07 08:06:10;;;;;;;6.28;1.38;;;6.00;99.90;;;;;;5040300;28;20033;-75
2022/04/07 08:08:37;;;;;;;3.88;0.80;;;6.00;99.90;;;;;;5042705;28;20048;-78
2022/04/07 08:11:03;;;;;;;5.30;0.90;;;6.00;99.90;;;;;;5024179;28;20352;-75
2022/04/07 08:13:30;;;;;;;2.08;0.40;;;6.00;99.90;;;;;;5056648;28;20511;-75
2022/04/07 08:15:56;;;;;;;2.33;0.50;;;6.00;99.90;;;;;;5023503;28;20047;-76
2022/04/07 08:18:23;;;;;;;8.77;0.50;;;6.00;99.90;;;;;;5039279;28;20028;-76
2022/04/07 08:20:49;;;;;;;4.45;0.70;;;6.00;99.90;;;;;;5022992;28;20357;-79
2022/04/07 08:23:16;;;;;;;4.95;0.52;;;6.10;99.90;;;;;;4990550;28;20033;-79
2022/04/07 08:25:42;;;;;;;2.97;0.50;;;6.10;99.90;;;;;;5008937;28;20053;-78
2022/04/07 08:28:10;;;;;;;5.53;0.52;;;6.10;99.90;;;;;;5059967;28;20373;-78
2022/04/07 08:30:36;;;;;;;4.43;0.70;;;6.20;99.90;;;;;;5041833;28;20017;-78
2022/04/07 08:33:04;;;;;;;3.47;0.40;;;6.20;99.90;;;;;;5058354;28;20039;-79
2022/04/07 08:35:31;;;;;;;4.03;0.50;;;6.30;99.90;;;;;;5024988;28;20029;-78
2022/04/07 08:37:57;;;;;;;2.30;0.40;;;6.50;99.90;;;;;;5041572;28;20027;-78
2022/04/07 08:40:25;;;;;;;2.13;0.40;;;6.70;99.90;;;;;;5040524;28;20033;-78
2022/04/07 08:42:51;;;;;;;4.35;0.88;;;6.90;99.90;;;;;;5056250;28;20110;-76
2022/04/07 08:45:19;;;;;;;4.97;0.80;;;7.10;99.90;;;;;;4987689;28;20341;-76
2022/04/07 08:47:48;;;;;;;4.57;0.90;;;7.30;99.90;;;;;;5040924;28;20031;-76
2022/04/07 08:50:16;;;;;;;5.57;0.63;;;7.50;99.90;;;;;;5027590;28;20041;-76
2022/04/07 08:52:42;;;;;;;3.33;0.50;;;7.60;99.90;;;;;;5020629;28;20017;-76
2022/04/07 08:55:09;;;;;;;5.05;1.02;;;7.70;99.90;;;;;;5038126;28;20062;-76
2022/04/07 08:57:37;;;;;;;11.85;1.55;;;7.80;99.90;;;;;;5006164;28;20029;-76
2022/04/07 09:00:04;;;;;;;6.93;2.80;;;8.00;99.90;;;;;;5041299;28;20032;-77
2022/04/07 09:02:30;;;;;;;4.53;1.00;;;8.20;99.90;;;;;;5034012;28;20047;-77
2022/04/07 09:04:58;;;;;;;5.57;0.70;;;8.60;99.90;;;;;;5042061;28;20036;-79
2022/04/07 09:07:32;;;;;;;4.55;0.60;;;8.90;99.90;;;;;;5041828;28;20047;-78
2022/04/07 09:10:00;;;;;;;3.60;1.00;;;9.20;99.90;;;;;;5060571;28;20016;-76
2022/04/07 09:12:27;;;;;;;6.97;1.00;;;9.50;99.90;;;;;;5063233;28;20135;-77
2022/04/07 09:14:59;;;;;;;6.55;1.38;;;9.50;99.90;;;;;;5003012;28;20047;-77
2022/04/07 09:17:26;;;;;;;6.63;1.50;;;9.50;99.90;;;;;;5049607;28;20025;-77
2022/04/07 09:20:09;;;;;;;8.43;1.02;;;9.70;99.90;;;;;;5026583;28;20051;-78
2022/04/07 09:22:37;;;;;;;4.93;1.02;;;9.90;99.90;;;;;;5061770;28;20028;-77
2022/04/07 09:25:05;;;;;;;2.80;0.90;;;10.00;99.90;;;;;;5024762;28;20045;-75
2022/04/07 09:27:32;;;;;;;4.72;0.77;;;10.10;99.90;;;;;;5039555;28;20056;-75
2022/04/07 09:29:59;;;;;;;4.28;0.60;;;10.20;99.90;;;;;;5024813;28;20016;-75
2022/04/07 09:32:27;;;;;;;3.22;0.60;;;10.30;99.90;;;;;;5038800;28;20048;-74
2022/04/07 09:34:59;;;;;;;6.22;0.80;;;10.30;99.90;;;;;;5001940;28;20025;-74
2022/04/07 09:37:28;;;;;;;6.82;1.08;;;10.30;99.90;;;;;;5022510;28;20025;-74
2022/04/07 09:40:14;;;;;;;4.40;0.60;;;10.30;99.90;;;;;;5058661;28;20041;-74
2022/04/07 09:42:44;;;;;;;3.85;0.70;;;10.30;99.90;;;;;;5059269;28;20366;-74
2022/04/07 09:45:12;;;;;;;3.95;0.70;;;10.30;99.90;;;;;;5056430;28;20467;-75
2022/04/07 09:47:44;;;;;;;7.70;0.80;;;10.30;99.90;;;;;;5023575;28;20043;-74
2022/04/07 09:50:32;;;;;;;6.32;0.75;;;10.30;99.90;;;;;;5041047;28;20021;-74
2022/04/07 09:53:01;;;;;;;6.05;1.08;;;10.30;99.90;;;;;;5052968;28;20044;-74
2022/04/07 09:55:37;;;;;;;6.90;1.00;;;10.30;99.90;;;;;;5038481;28;20036;-74
2022/04/07 09:58:06;;;;;;;5.90;0.60;;;10.30;99.90;;;;;;5057774;28;20016;-74
2022/04/07 10:00:33;;;;;;;4.28;0.93;;;10.30;99.90;;;;;;5056932;28;20017;-74
2022/04/07 10:03:04;;;;;;;11.07;0.80;;;10.30;99.90;;;;;;5056479;28;20028;-74
2022/04/07 10:05:34;;;;;;;6.25;0.80;;;10.20;99.90;;;;;;5057009;28;20040;-74
2022/04/07 10:08:02;;;;;;;7.50;0.60;;;10.30;99.90;;;;;;5023640;28;20036;-75
2022/04/07 10:10:30;;;;;;;6.45;0.50;;;10.50;99.90;;;;;;5040029;28;20036;-74
2022/04/07 10:12:59;;;;;;;3.78;0.40;;;10.70;99.90;;;;;;5022561;28;20036;-74
2022/04/07 10:15:26;;;;;;;7.68;0.80;;;11.00;99.90;;;;;;5020553;28;20077;-75
2022/04/07 10:17:53;;;;;;;4.65;0.50;;;11.20;99.90;;;;;;5056399;28;20363;-74
2022/04/07 10:20:21;;;;;;;6.47;0.50;;;11.30;99.90;;;;;;5005970;28;20043;-74
2022/04/07 10:23:01;;;;;;;6.68;0.50;;;11.50;99.90;;;;;;5022291;28;20020;-75
2022/04/07 10:25:30;;;;;;;9.43;0.60;;;11.70;99.90;;;;;;5037548;28;20044;-75
2022/04/07 10:28:02;;;;;;;7.40;0.80;;;11.70;99.90;;;;;;5022751;28;20041;-75
2022/04/07 10:30:45;;;;;;;12.32;0.77;;;11.60;99.90;;;;;;5008871;28;20463;-75
2022/04/07 10:33:41;;;;;;;7.72;0.43;;;11.50;99.90;;;;;;5019435;28;20096;-75
2022/04/07 10:36:19;;;;;;;9.02;1.13;;;11.20;99.90;;;;;;5020626;28;20028;-74
2022/04/07 10:38:48;;;;;;;9.52;0.70;;;11.10;99.90;;;;;;5024203;28;20115;-74
2022/04/07 10:41:39;;;;;;;8.02;0.80;;;11.10;99.90;;;;;;5057639;28;20024;-75
2022/04/07 10:44:19;;;;;;;7.50;0.70;;;11.40;99.90;;;;;;5020195;28;20025;-76
2022/04/07 10:46:46;;;;;;;5.78;0.75;;;11.70;99.90;;;;;;5005887;28;20028;-76
2022/04/07 10:49:24;;;;;;;5.85;0.70;;;11.90;99.90;;;;;;5024803;28;20024;-76
2022/04/07 10:51:58;;;;;;;3.85;0.50;;;12.10;99.90;;;;;;5020638;28;20649;-75
2022/04/07 10:54:29;;;;;;;5.25;0.60;;;12.20;99.90;;;;;;5002442;28;20029;-75
2022/04/07 10:57:01;;;;;;;6.30;0.60;;;12.10;99.90;;;;;;5038111;28;20032;-74
2022/04/07 10:59:31;;;;;;;6.75;0.80;;;12.30;99.90;;;;;;5041718;28;20029;-75
2022/04/07 11:01:59;;;;;;;7.75;1.13;;;12.20;99.90;;;;;;5019001;28;20044;-74
2022/04/07 11:04:26;;;;;;;10.57;1.38;;;12.10;99.90;;;;;;5023336;28;20039;-75
2022/04/07 11:07:07;;;;;;;8.93;0.68;;;11.90;99.90;;;;;;5019991;28;20043;-75
2022/04/07 11:09:45;;;;;;;8.63;1.05;;;11.50;99.90;;;;;;5037808;28;20020;-75
2022/04/07 11:12:31;;;;;;;10.85;2.00;;;11.30;99.90;;;;;;5031249;28;20467;-75
2022/04/07 11:15:01;;;;;;;12.68;1.83;;;11.10;99.90;;;;;;5054881;28;20055;-75
2022/04/07 11:17:37;;;;;;;10.23;1.50;;;11.10;99.90;;;;;;5024944;28;20028;-75
2022/04/07 11:20:23;;;;;;;10.63;1.77;;;11.10;99.90;;;;;;5018909;28;20033;-75
2022/04/07 11:22:54;;;;;;;10.10;1.17;;;11.00;99.90;;;;;;5048496;28;20727;-75
2022/04/07 11:25:43;;;;;;;8.13;1.25;;;11.00;99.90;;;;;;5044154;28;20035;-74
2022/04/07 11:28:22;;;;;;;9.48;1.45;;;10.90;99.90;;;;;;5018441;28;20051;-74
2022/04/07 11:30:50;;;;;;;9.07;1.38;;;10.80;99.90;;;;;;5038049;28;20017;-75
2022/04/07 11:33:20;;;;;;;9.88;1.02;;;10.70;99.90;;;;;;5033846;28;20024;-75
2022/04/07 11:36:02;;;;;;;11.63;1.55;;;10.80;99.90;;;;;;5020672;28;20024;-77
2022/04/07 11:38:48;;;;;;;;;;;10.80;99.90;;;;;;5022172;28;20241;-76
2022/04/07 11:41:17;;;;;;;14.90;1.83;;;10.80;99.90;;;;;;5038860;28;19909;-74
2022/04/07 11:43:48;;;;;;;11.00;1.35;;;10.80;99.90;;;;;;5032854;28;20084;-76
2022/04/07 11:46:24;;;;;;;11.25;1.55;;;10.80;99.90;;;;;;5036400;28;20365;-77
2022/04/07 11:48:51;;;;;;;12.45;1.95;;;10.80;99.90;;;;;;5021395;28;20037;-75
2022/04/07 11:51:18;;;;;;;8.82;1.30;;;10.90;99.90;;;;;;5008629;28;20033;-76
2022/04/07 11:53:55;;;;;;;9.73;1.17;;;11.00;99.90;;;;;;5016781;28;20028;-76
2022/04/07 11:56:25;;;;;;;10.10;1.00;;;11.10;99.90;;;;;;5017198;28;20028;-76
2022/04/07 11:58:55;;;;;;;11.73;1.20;;;11.20;99.90;;;;;;5006618;28;20055;-76
2022/04/07 12:01:23;;;;;;;12.25;1.48;;;11.50;99.90;;;;;;5037207;28;20059;-76
2022/04/07 12:03:52;;;;;;;12.60;1.00;;;11.70;99.90;;;;;;5018710;28;20028;-76
2022/04/07 12:06:44;;;;;;;10.77;1.55;;;11.60;99.90;;;;;;5020869;28;20067;-79
2022/04/07 12:09:14;;;;;;;11.68;1.27;;;11.50;99.90;;;;;;5038406;28;20357;-75
2022/04/07 12:11:40;;;;;;;11.40;1.10;;;11.40;99.90;;;;;;5054619;28;20040;-77
2022/04/07 12:14:11;;;;;;;11.07;1.02;;;11.40;99.90;;;;;;5018886;28;20040;-77
2022/04/07 12:16:46;;;;;;;8.73;0.90;;;11.50;99.90;;;;;;5034785;28;20028;-79
2022/04/07 12:19:13;;;;;;;10.60;1.10;;;11.60;99.90;;;;;;5024799;28;20399;-77
2022/04/07 12:21:58;;;;;;;12.88;1.52;;;11.80;99.90;;;;;;5023536;28;20411;-76
2022/04/07 12:24:26;;;;;;;9.50;1.10;;;12.10;99.90;;;;;;5040313;28;20052;-76
2022/04/07 12:26:55;;;;;;;13.82;1.60;;;12.30;99.90;;;;;;5006577;28;20052;-76
2022/04/07 12:29:34;;;;;;;9.75;1.33;;;12.30;99.90;;;;;;5025570;28;20032;-76
2022/04/07 12:32:09;;;;;;;13.60;2.17;;;12.20;99.90;;;;;;5041848;28;20032;-77
2022/04/07 12:34:51;;;;;;;10.23;1.23;;;12.10;99.90;;;;;;5025051;28;20120;-77
2022/04/07 12:37:36;;;;;;;10.73;1.52;;;11.90;99.90;;;;;;5060408;28;20376;-78
2022/04/07 12:40:26;;;;;;;8.75;1.10;;;11.70;99.90;;;;;;5028904;28;20474;-80
2022/04/07 12:42:55;;;;;;;13.80;1.73;;;11.60;99.90;;;;;;5030485;28;20041;-80
2022/04/07 12:45:22;;;;;;;8.27;1.65;;;11.60;99.90;;;;;;5040455;28;20044;-80
2022/04/07 12:48:06;;;;;;;12.10;2.40;;;11.70;99.90;;;;;;5003797;28;20402;-81
2022/04/07 12:50:33;;;;;;;11.90;1.45;;;11.80;99.90;;;;;;5024315;28;20041;-79
2022/04/07 12:53:00;;;;;;;7.95;0.98;;;11.80;99.90;;;;;;5022029;28;20013;-76
2022/04/07 12:55:38;;;;;;;11.57;0.95;;;12.00;99.90;;;;;;5024090;28;20042;-76
2022/04/07 12:58:05;;;;;;;11.07;1.73;;;12.50;99.90;;;;;;5051463;28;20034;-76
2022/04/07 13:00:33;;;;;;;4.47;1.13;;;12.70;99.90;;;;;;5022268;28;20035;-75